Time;durP1;ratioP1;P1;durP2;ratioP2;P2;SDS_P1;SDS_P2;PMS_P1;PMS_P2;Temp;Humidity;BMP_temperature;BMP_pressure;BME280_temperature;BME280_humidity;BME280_pressure;Samples;Min_cycle;Max_cycle;Signal;HPM_P1;HPM_P2
2021/02/20 00:01:22;;;;;;;1.72;1.61;;;;;;;18.29;44.78;100587.23;;;;-56
2021/02/20 00:04:22;;;;;;;1.80;1.70;;;;;;;18.27;44.86;100585.98;;;;-56
2021/02/20 00:07:23;;;;;;;1.89;1.79;;;;;;;18.26;44.83;100588.17;;;;-55
2021/02/20 00:10:22;;;;;;;2.31;1.65;;;;;;;18.25;44.90;100588.95;;;;-55
2021/02/20 00:13:23;;;;;;;1.91;1.62;;;;;;;18.23;44.81;100590.15;;;;-55
2021/02/20 00:16:23;;;;;;;1.71;1.61;;;;;;;18.22;44.86;100595.23;;;;-54
2021/02/20 00:19:22;;;;;;;1.93;1.71;;;;;;;18.20;44.82;100595.77;;;;-54
2021/02/20 00:22:22;;;;;;;1.99;1.65;;;;;;;18.18;44.88;100590.88;;;;-54
2021/02/20 00:25:23;;;;;;;1.85;1.70;;;;;;;18.16;44.84;100591.77;;;;-55
2021/02/20 00:28:22;;;;;;;1.82;1.72;;;;;;;18.15;44.88;100587.84;;;;-54
2021/02/20 00:31:23;;;;;;;1.89;1.69;;;;;;;18.14;44.85;100588.41;;;;-55
2021/02/20 00:34:22;;;;;;;1.81;1.71;;;;;;;18.12;44.90;100590.66;;;;-54
2021/02/20 00:37:22;;;;;;;1.82;1.72;;;;;;;18.10;44.91;100584.55;;;;-55
2021/02/20 00:40:23;;;;;;;1.77;1.67;;;;;;;18.09;44.90;100585.24;;;;-55
2021/02/20 00:43:22;;;;;;;1.80;1.70;;;;;;;18.07;44.87;100581.56;;;;-55
2021/02/20 00:46:22;;;;;;;1.77;1.67;;;;;;;18.06;44.96;100582.38;;;;-55
2021/02/20 00:49:23;;;;;;;1.76;1.66;;;;;;;18.03;44.91;100578.86;;;;-54
2021/02/20 00:52:22;;;;;;;1.77;1.67;;;;;;;18.02;44.94;100578.50;;;;-54
2021/02/20 00:55:22;;;;;;;1.79;1.63;;;;;;;18.02;44.92;100582.23;;;;-55
2021/02/20 00:58:23;;;;;;;1.85;1.75;;;;;;;18.00;44.95;100585.77;;;;-54
2021/02/20 01:01:22;;;;;;;1.87;1.56;;;;;;;17.98;44.93;100589.06;;;;-55
2021/02/20 01:04:22;;;;;;;1.80;1.70;;;;;;;17.97;44.91;100589.44;;;;-54
2021/02/20 01:07:23;;;;;;;1.71;1.61;;;;;;;17.95;44.95;100590.47;;;;-55
2021/02/20 01:10:22;;;;;;;1.79;1.69;;;;;;;17.94;44.97;100593.63;;;;-54
2021/02/20 01:13:22;;;;;;;1.73;1.63;;;;;;;17.93;44.96;100596.30;;;;-53
2021/02/20 01:16:23;;;;;;;1.77;1.66;;;;;;;17.92;44.98;100594.58;;;;-53
2021/02/20 01:19:22;;;;;;;1.69;1.59;;;;;;;17.91;44.92;100593.20;;;;-54
2021/02/20 01:22:22;;;;;;;1.79;1.68;;;;;;;17.89;44.95;100592.92;;;;-55
2021/02/20 01:25:23;;;;;;;1.81;1.71;;;;;;;17.88;44.97;100595.48;;;;-54
2021/02/20 01:28:22;;;;;;;1.73;1.63;;;;;;;17.87;45.02;100600.19;;;;-55
2021/02/20 01:31:22;;;;;;;1.91;1.71;;;;;;;17.85;45.04;100599.50;;;;-55
2021/02/20 01:34:23;;;;;;;1.75;1.65;;;;;;;17.84;45.05;100593.23;;;;-55
2021/02/20 01:37:22;;;;;;;1.70;1.60;;;;;;;17.83;44.99;100593.80;;;;-54
2021/02/20 01:40:22;;;;;;;1.70;1.60;;;;;;;17.83;45.00;100589.18;;;;-55
2021/02/20 01:43:23;;;;;;;1.87;1.77;;;;;;;17.81;45.01;100591.62;;;;-55
2021/02/20 01:46:22;;;;;;;1.66;1.56;;;;;;;17.80;44.97;100588.36;;;;-55
2021/02/20 01:49:22;;;;;;;1.69;1.59;;;;;;;17.78;45.00;100583.41;;;;-53
2021/02/20 01:52:22;;;;;;;1.81;1.70;;;;;;;17.77;45.09;100581.35;;;;-54
2021/02/20 01:55:24;;;;;;;1.73;1.63;;;;;;;17.75;45.05;100582.22;;;;-53
2021/02/20 01:58:23;;;;;;;1.90;1.73;;;;;;;17.74;45.04;100578.16;;;;-54
2021/02/20 02:01:22;;;;;;;1.86;1.71;;;;;;;17.73;45.06;100576.10;;;;-53
2021/02/20 02:04:22;;;;;;;2.01;1.70;;;;;;;17.73;45.05;100578.70;;;;-54
2021/02/20 02:07:23;;;;;;;2.02;1.82;;;;;;;17.72;45.04;100576.83;;;;-55
2021/02/20 02:10:22;;;;;;;2.02;1.77;;;;;;;17.71;45.05;100573.96;;;;-55
2021/02/20 02:13:22;;;;;;;1.78;1.68;;;;;;;17.69;45.01;100568.83;;;;-55
2021/02/20 02:16:23;;;;;;;1.80;1.70;;;;;;;17.68;45.10;100567.45;;;;-56
2021/02/20 02:19:22;;;;;;;1.71;1.61;;;;;;;17.66;45.09;100561.17;;;;-56
2021/02/20 02:22:22;;;;;;;1.88;1.78;;;;;;;17.65;45.14;100556.28;;;;-55
2021/02/20 02:25:22;;;;;;;1.71;1.61;;;;;;;17.64;45.10;100555.06;;;;-55
2021/02/20 02:28:22;;;;;;;1.87;1.72;;;;;;;17.63;45.06;100555.44;;;;-55
2021/02/20 02:31:22;;;;;;;1.99;1.80;;;;;;;17.62;45.08;100551.88;;;;-56
2021/02/20 02:34:23;;;;;;;1.70;1.60;;;;;;;17.61;45.14;100550.62;;;;-56
2021/02/20 02:37:22;;;;;;;1.77;1.67;;;;;;;17.60;45.10;100548.84;;;;-55
2021/02/20 02:40:22;;;;;;;1.96;1.73;;;;;;;17.60;45.05;100545.77;;;;-56
2021/02/20 02:43:23;;;;;;;1.85;1.75;;;;;;;17.58;45.11;100543.14;;;;-55
2021/02/20 02:46:22;;;;;;;1.70;1.60;;;;;;;17.57;45.14;100540.44;;;;-55
2021/02/20 02:49:23;;;;;;;1.85;1.75;;;;;;;17.55;45.11;100540.80;;;;-56
2021/02/20 02:52:22;;;;;;;1.99;1.85;;;;;;;17.56;45.15;100545.70;;;;-56
2021/02/20 02:55:22;;;;;;;1.99;1.76;;;;;;;17.54;45.14;100542.75;;;;-55
2021/02/20 02:58:22;;;;;;;1.72;1.62;;;;;;;17.54;45.14;100544.77;;;;-55
2021/02/20 03:01:22;;;;;;;1.89;1.79;;;;;;;17.52;45.10;100544.09;;;;-56
2021/02/20 03:04:23;;;;;;;1.91;1.78;;;;;;;17.52;45.12;100538.50;;;;-56
2021/02/20 03:07:22;;;;;;;1.92;1.77;;;;;;;17.50;45.11;100533.53;;;;-55
2021/02/20 03:10:22;;;;;;;1.76;1.66;;;;;;;17.51;45.15;100535.72;;;;-55
2021/02/20 03:13:22;;;;;;;1.70;1.60;;;;;;;17.50;45.08;100533.61;;;;-55
2021/02/20 03:16:22;;;;;;;1.71;1.61;;;;;;;17.48;45.18;100530.91;;;;-55
2021/02/20 03:19:22;;;;;;;2.09;1.90;;;;;;;17.48;45.09;100528.06;;;;-56
2021/02/20 03:22:22;;;;;;;2.05;1.85;;;;;;;17.46;45.12;100526.41;;;;-55
2021/02/20 03:25:23;;;;;;;1.70;1.60;;;;;;;17.46;45.13;100526.17;;;;-55
2021/02/20 03:28:22;;;;;;;1.81;1.71;;;;;;;17.45;45.18;100523.74;;;;-55
2021/02/20 03:31:22;;;;;;;1.80;1.70;;;;;;;17.44;45.09;100517.80;;;;-55
2021/02/20 03:34:22;;;;;;;1.71;1.61;;;;;;;17.43;45.13;100517.28;;;;-55
2021/02/20 03:37:22;;;;;;;1.91;1.71;;;;;;;17.41;45.16;100527.00;;;;-56
2021/02/20 03:40:22;;;;;;;1.86;1.73;;;;;;;17.41;45.19;100526.97;;;;-56
2021/02/20 03:43:23;;;;;;;1.76;1.66;;;;;;;17.41;45.17;100530.61;;;;-55
2021/02/20 03:46:22;;;;;;;1.81;1.70;;;;;;;17.39;45.16;100527.86;;;;-55
2021/02/20 03:49:23;;;;;;;1.82;1.70;;;;;;;17.38;45.23;100525.48;;;;-56
2021/02/20 03:52:22;;;;;;;1.97;1.82;;;;;;;17.36;45.22;100524.55;;;;-55
2021/02/20 03:55:22;;;;;;;1.77;1.67;;;;;;;17.37;45.16;100525.12;;;;-55
2021/02/20 03:58:22;;;;;;;1.71;1.61;;;;;;;17.36;45.19;100524.14;;;;-55
2021/02/20 04:01:22;;;;;;;1.90;1.80;;;;;;;17.36;45.19;100527.88;;;;-55
2021/02/20 04:04:22;;;;;;;1.69;1.59;;;;;;;17.34;45.17;100524.84;;;;-55
2021/02/20 04:07:22;;;;;;;1.89;1.79;;;;;;;17.33;45.18;100526.95;;;;-56
2021/02/20 04:10:22;;;;;;;1.93;1.83;;;;;;;17.32;45.17;100529.34;;;;-55
2021/02/20 04:13:22;;;;;;;1.75;1.65;;;;;;;17.32;45.14;100530.80;;;;-55
2021/02/20 04:16:22;;;;;;;1.75;1.65;;;;;;;17.31;45.12;100529.06;;;;-55
2021/02/20 04:19:22;;;;;;;1.97;1.78;;;;;;;17.30;45.22;100534.58;;;;-55
2021/02/20 04:22:22;;;;;;;1.83;1.70;;;;;;;17.30;45.18;100538.55;;;;-55
2021/02/20 04:25:22;;;;;;;1.79;1.68;;;;;;;17.28;45.21;100536.48;;;;-56
2021/02/20 04:28:22;;;;;;;1.83;1.73;;;;;;;17.28;45.14;100537.38;;;;-55
2021/02/20 04:31:22;;;;;;;1.88;1.74;;;;;;;17.27;45.18;100536.73;;;;-55
2021/02/20 04:34:23;;;;;;;1.80;1.70;;;;;;;17.26;45.14;100541.07;;;;-56
2021/02/20 04:37:22;;;;;;;1.79;1.69;;;;;;;17.25;45.16;100546.01;;;;-55
2021/02/20 04:40:22;;;;;;;1.79;1.69;;;;;;;17.25;45.16;100550.38;;;;-55
2021/02/20 04:43:22;;;;;;;1.89;1.69;;;;;;;17.24;45.17;100556.26;;;;-54
2021/02/20 04:46:22;;;;;;;1.76;1.63;;;;;;;17.24;45.22;100559.34;;;;-55
2021/02/20 04:49:22;;;;;;;1.84;1.74;;;;;;;17.23;45.16;100558.04;;;;-55
2021/02/20 04:52:23;;;;;;;1.69;1.59;;;;;;;17.22;45.18;100555.01;;;;-55
2021/02/20 04:55:22;;;;;;;1.90;1.80;;;;;;;17.21;45.20;100557.19;;;;-55
2021/02/20 04:58:22;;;;;;;1.99;1.79;;;;;;;17.21;45.15;100565.45;;;;-56
2021/02/20 05:01:22;;;;;;;1.77;1.65;;;;;;;17.20;45.17;100569.23;;;;-55
2021/02/20 05:04:22;;;;;;;1.93;1.80;;;;;;;17.19;45.17;100571.81;;;;-56
2021/02/20 05:07:22;;;;;;;1.99;1.83;;;;;;;17.19;45.19;100573.84;;;;-55
2021/02/20 05:10:22;;;;;;;1.82;1.72;;;;;;;17.17;45.19;100567.81;;;;-55
2021/02/20 05:13:22;;;;;;;1.98;1.75;;;;;;;17.17;45.20;100573.08;;;;-55
2021/02/20 05:16:22;;;;;;;1.86;1.74;;;;;;;17.17;45.16;100576.23;;;;-56
2021/02/20 05:19:22;;;;;;;1.79;1.69;;;;;;;17.16;45.14;100578.14;;;;-54
2021/02/20 05:22:24;;;;;;;1.89;1.68;;;;;;;17.15;45.17;100579.03;;;;-55
2021/02/20 05:25:23;;;;;;;1.69;1.56;;;;;;;17.14;45.21;100581.51;;;;-55
2021/02/20 05:28:22;;;;;;;1.95;1.79;;;;;;;17.13;45.22;100576.32;;;;-54
2021/02/20 05:31:22;;;;;;;1.85;1.75;;;;;;;17.12;45.23;100573.33;;;;-54
2021/02/20 05:34:22;;;;;;;1.75;1.65;;;;;;;17.13;45.20;100577.38;;;;-54
2021/02/20 05:37:22;;;;;;;1.80;1.70;;;;;;;17.11;45.21;100575.31;;;;-55
2021/02/20 05:40:22;;;;;;;1.81;1.71;;;;;;;17.11;45.26;100572.80;;;;-54
2021/02/20 05:43:22;;;;;;;2.04;1.87;;;;;;;17.10;45.25;100571.91;;;;-54
2021/02/20 05:46:22;;;;;;;1.78;1.68;;;;;;;17.09;45.17;100572.13;;;;-55
2021/02/20 05:49:22;;;;;;;1.97;1.80;;;;;;;17.09;45.22;100579.00;;;;-55
2021/02/20 05:52:22;;;;;;;1.78;1.65;;;;;;;17.08;45.22;100577.13;;;;-55
2021/02/20 05:55:22;;;;;;;1.92;1.82;;;;;;;17.07;45.23;100570.62;;;;-54
2021/02/20 05:58:22;;;;;;;1.89;1.76;;;;;;;17.07;45.23;100586.17;;;;-54
2021/02/20 06:01:22;;;;;;;1.85;1.71;;;;;;;17.06;45.21;100590.14;;;;-54
2021/02/20 06:04:22;;;;;;;1.77;1.67;;;;;;;17.05;45.25;100590.51;;;;-54
2021/02/20 06:07:22;;;;;;;1.72;1.62;;;;;;;17.05;45.20;100585.24;;;;-54
2021/02/20 06:10:22;;;;;;;1.77;1.67;;;;;;;17.04;45.23;100594.39;;;;-55
2021/02/20 06:13:22;;;;;;;1.81;1.71;;;;;;;17.04;45.23;100587.75;;;;-55
2021/02/20 06:16:22;;;;;;;1.89;1.79;;;;;;;17.05;45.24;100592.20;;;;-55
2021/02/20 06:19:22;;;;;;;1.86;1.73;;;;;;;17.05;45.25;100581.84;;;;-55
2021/02/20 06:22:22;;;;;;;1.98;1.79;;;;;;;17.05;45.26;100590.09;;;;-55
2021/02/20 06:25:22;;;;;;;1.82;1.72;;;;;;;17.07;45.20;100584.30;;;;-55
2021/02/20 06:28:22;;;;;;;1.86;1.76;;;;;;;17.09;45.14;100583.13;;;;-55
2021/02/20 06:31:22;;;;;;;1.74;1.64;;;;;;;17.11;45.28;100581.88;;;;-55
2021/02/20 06:34:22;;;;;;;1.79;1.69;;;;;;;17.13;45.16;100582.31;;;;-55
2021/02/20 06:37:22;;;;;;;1.84;1.65;;;;;;;17.16;45.16;100578.70;;;;-55
2021/02/20 06:40:22;;;;;;;1.70;1.60;;;;;;;17.21;45.18;100593.88;;;;-55
2021/02/20 06:43:22;;;;;;;1.93;1.57;;;;;;;17.24;45.11;100602.42;;;;-55
2021/02/20 06:46:22;;;;;;;1.67;1.57;;;;;;;17.28;45.13;100593.27;;;;-55
2021/02/20 06:49:22;;;;;;;2.92;1.81;;;;;;;17.34;45.28;100592.64;;;;-55
2021/02/20 06:52:22;;;;;;;1.83;1.73;;;;;;;17.38;45.30;100591.02;;;;-55
2021/02/20 06:55:22;;;;;;;1.79;1.67;;;;;;;17.44;45.30;100596.63;;;;-55
2021/02/20 06:58:22;;;;;;;1.97;1.77;;;;;;;17.46;45.18;100601.03;;;;-55
2021/02/20 07:01:22;;;;;;;1.73;1.63;;;;;;;17.51;45.32;100604.27;;;;-55
2021/02/20 07:04:22;;;;;;;1.67;1.57;;;;;;;17.55;45.26;100608.30;;;;-58
2021/02/20 07:07:22;;;;;;;1.70;1.60;;;;;;;17.58;45.33;100610.88;;;;-56
2021/02/20 07:10:22;;;;;;;1.70;1.60;;;;;;;17.62;45.36;100608.60;;;;-55
2021/02/20 07:13:22;;;;;;;1.65;1.55;;;;;;;17.66;45.37;100613.13;;;;-55
2021/02/20 07:16:22;;;;;;;1.79;1.69;;;;;;;17.69;45.38;100617.61;;;;-55
2021/02/20 07:19:22;;;;;;;1.87;1.77;;;;;;;17.73;45.37;100615.66;;;;-56
2021/02/20 07:22:22;;;;;;;1.63;1.53;;;;;;;17.77;45.46;100614.18;;;;-56
2021/02/20 07:25:22;;;;;;;2.22;1.58;;;;;;;17.80;45.28;100619.64;;;;-55
2021/02/20 07:28:22;;;;;;;1.57;1.47;;;;;;;17.83;45.35;100618.20;;;;-56
2021/02/20 07:31:23;;;;;;;1.74;1.64;;;;;;;17.86;45.31;100626.66;;;;-56
2021/02/20 07:34:22;;;;;;;1.80;1.70;;;;;;;17.89;45.35;100626.48;;;;-55
2021/02/20 07:37:22;;;;;;;1.73;1.63;;;;;;;17.92;45.35;100628.06;;;;-56
2021/02/20 07:40:22;;;;;;;1.84;1.60;;;;;;;17.94;45.32;100631.25;;;;-57
2021/02/20 07:43:22;;;;;;;1.71;1.61;;;;;;;17.97;45.37;100635.02;;;;-55
2021/02/20 07:46:22;;;;;;;1.80;1.70;;;;;;;18.00;45.34;100633.61;;;;-56
2021/02/20 07:49:22;;;;;;;1.75;1.65;;;;;;;18.01;45.31;100633.81;;;;-55
2021/02/20 07:52:22;;;;;;;1.70;1.59;;;;;;;18.03;45.29;100629.43;;;;-55
2021/02/20 07:55:23;;;;;;;1.84;1.72;;;;;;;18.04;45.22;100625.73;;;;-55
2021/02/20 07:58:22;;;;;;;1.60;1.50;;;;;;;18.06;45.24;100629.81;;;;-55
2021/02/20 08:01:22;;;;;;;1.79;1.69;;;;;;;18.10;45.24;100630.53;;;;-56
2021/02/20 08:04:22;;;;;;;1.70;1.60;;;;;;;18.11;45.19;100628.26;;;;-56
2021/02/20 08:07:22;;;;;;;1.70;1.60;;;;;;;18.12;45.18;100631.29;;;;-56
2021/02/20 08:10:22;;;;;;;1.71;1.61;;;;;;;18.15;45.15;100633.91;;;;-56
2021/02/20 08:13:22;;;;;;;1.78;1.60;;;;;;;18.17;45.19;100639.54;;;;-55
2021/02/20 08:16:22;;;;;;;1.70;1.60;;;;;;;18.20;45.22;100642.16;;;;-55
2021/02/20 08:19:22;;;;;;;1.85;1.73;;;;;;;18.22;45.17;100643.92;;;;-55
2021/02/20 08:22:23;;;;;;;1.87;1.65;;;;;;;18.24;45.18;100654.98;;;;-55
2021/02/20 08:25:22;;;;;;;1.95;1.79;;;;;;;18.27;45.13;100656.16;;;;-56
2021/02/20 08:28:22;;;;;;;1.71;1.61;;;;;;;18.28;45.16;100653.80;;;;-57
2021/02/20 08:31:22;;;;;;;1.70;1.60;;;;;;;18.30;45.10;100649.78;;;;-56
2021/02/20 08:34:22;;;;;;;1.98;1.71;;;;;;;18.33;45.09;100656.00;;;;-56
2021/02/20 08:37:22;;;;;;;1.70;1.60;;;;;;;18.34;44.98;100665.50;;;;-56
2021/02/20 08:40:22;;;;;;;1.81;1.71;;;;;;;18.35;45.03;100672.66;;;;-56
2021/02/20 08:43:22;;;;;;;1.73;1.60;;;;;;;18.36;44.99;100669.58;;;;-56
2021/02/20 08:46:22;;;;;;;1.70;1.60;;;;;;;18.37;44.98;100679.10;;;;-56
2021/02/20 08:49:22;;;;;;;1.75;1.65;;;;;;;18.38;45.00;100677.80;;;;-55
2021/02/20 08:52:22;;;;;;;1.99;1.78;;;;;;;18.39;44.85;100682.05;;;;-51
2021/02/20 08:55:22;;;;;;;6.18;1.95;;;;;;;18.42;45.35;100680.38;;;;-50
2021/02/20 08:58:22;;;;;;;3.07;2.19;;;;;;;18.43;45.44;100680.89;;;;-49
2021/02/20 09:01:22;;;;;;;3.37;2.08;;;;;;;18.45;45.74;100683.92;;;;-53
2021/02/20 09:04:23;;;;;;;2.60;1.86;;;;;;;18.52;45.66;100686.86;;;;-49
2021/02/20 09:07:22;;;;;;;3.75;2.00;;;;;;;18.54;45.66;100691.10;;;;-54
2021/02/20 09:10:23;;;;;;;2.87;1.79;;;;;;;18.57;45.75;100690.11;;;;-54
2021/02/20 09:13:22;;;;;;;3.21;1.91;;;;;;;18.60;45.73;100682.17;;;;-53
2021/02/20 09:16:22;;;;;;;3.05;1.87;;;;;;;18.64;45.91;100687.43;;;;-54
2021/02/20 09:19:22;;;;;;;2.73;1.93;;;;;;;18.69;45.90;100691.78;;;;-60
2021/02/20 09:22:22;;;;;;;1.90;1.71;;;;;;;18.73;45.96;100690.86;;;;-56
2021/02/20 09:25:22;;;;;;;2.11;1.91;;;;;;;18.78;45.81;100694.73;;;;-58
2021/02/20 09:28:22;;;;;;;1.90;1.80;;;;;;;18.82;45.76;100698.47;;;;-57
2021/02/20 09:31:22;;;;;;;1.79;1.69;;;;;;;18.85;45.88;100694.38;;;;-54
2021/02/20 09:34:22;;;;;;;2.41;1.73;;;;;;;18.88;45.96;100691.08;;;;-53
2021/02/20 09:37:22;;;;;;;2.05;1.85;;;;;;;18.92;45.88;100690.65;;;;-51
2021/02/20 09:40:22;;;;;;;2.01;1.80;;;;;;;18.93;45.82;100690.84;;;;-51
2021/02/20 09:43:22;;;;;;;2.12;1.73;;;;;;;18.96;45.88;100684.69;;;;-52
2021/02/20 09:46:22;;;;;;;2.83;1.69;;;;;;;18.98;45.59;100687.80;;;;-55
2021/02/20 09:49:22;;;;;;;1.99;1.80;;;;;;;19.00;45.80;100687.09;;;;-52
2021/02/20 09:52:22;;;;;;;4.09;1.75;;;;;;;19.05;45.99;100687.66;;;;-57
2021/02/20 09:55:22;;;;;;;3.13;1.90;;;;;;;19.09;45.89;100686.97;;;;-58
2021/02/20 09:58:22;;;;;;;2.01;1.80;;;;;;;19.08;45.21;100689.06;;;;-57
2021/02/20 10:01:22;;;;;;;2.29;1.85;;;;;;;19.07;45.04;100692.96;;;;-58
2021/02/20 10:04:22;;;;;;;2.64;1.80;;;;;;;19.07;45.27;100690.03;;;;-56
2021/02/20 10:07:25;;;;;;;4.59;1.97;;;;;;;19.08;45.37;100680.69;;;;-57
2021/02/20 10:10:22;;;;;;;4.66;2.29;;;;;;;19.07;45.32;100680.45;;;;-51
2021/02/20 10:13:22;;;;;;;4.12;2.55;;;;;;;19.07;45.09;100670.38;;;;-50
2021/02/20 10:16:22;;;;;;;4.07;2.57;;;;;;;19.08;45.11;100666.15;;;;-52
2021/02/20 10:19:22;;;;;;;5.33;2.60;;;;;;;19.11;45.02;100661.70;;;;-49
2021/02/20 10:22:22;;;;;;;4.31;2.78;;;;;;;19.12;44.83;100659.86;;;;-53
2021/02/20 10:25:22;;;;;;;4.14;2.67;;;;;;;19.15;45.04;100654.77;;;;-52
2021/02/20 10:28:22;;;;;;;2.75;2.29;;;;;;;19.16;44.98;100651.30;;;;-52
2021/02/20 10:31:22;;;;;;;2.54;2.34;;;;;;;19.18;44.73;100644.25;;;;-52
2021/02/20 10:34:22;;;;;;;3.20;2.51;;;;;;;19.20;44.83;100647.61;;;;-49
2021/02/20 10:37:22;;;;;;;3.94;2.34;;;;;;;19.22;44.92;100636.09;;;;-48
2021/02/20 10:40:22;;;;;;;3.96;2.39;;;;;;;19.23;44.91;100636.58;;;;-51
2021/02/20 10:43:22;;;;;;;2.88;2.27;;;;;;;19.24;44.97;100636.11;;;;-49
2021/02/20 10:46:22;;;;;;;4.24;2.47;;;;;;;19.25;44.93;100636.19;;;;-46
2021/02/20 10:49:22;;;;;;;2.78;2.45;;;;;;;19.24;44.94;100627.50;;;;-55
2021/02/20 10:52:22;;;;;;;2.73;2.41;;;;;;;19.23;44.92;100620.08;;;;-60
2021/02/20 10:55:22;;;;;;;4.59;2.63;;;;;;;19.26;44.93;100616.80;;;;-46
2021/02/20 10:58:22;;;;;;;3.19;2.30;;;;;;;19.27;44.64;100604.77;;;;-46
2021/02/20 11:01:22;;;;;;;3.12;2.32;;;;;;;19.29;44.83;100600.07;;;;-54
2021/02/20 11:04:22;;;;;;;3.27;2.27;;;;;;;19.31;45.17;100592.28;;;;-52
2021/02/20 11:07:22;;;;;;;2.90;2.23;;;;;;;19.34;45.41;100586.80;;;;-53
2021/02/20 11:10:22;;;;;;;4.81;2.09;;;;;;;19.36;45.35;100580.30;;;;-47
2021/02/20 11:13:22;;;;;;;3.97;2.10;;;;;;;19.39;45.34;100574.65;;;;-53
2021/02/20 11:16:22;;;;;;;2.59;2.16;;;;;;;19.40;45.24;100567.98;;;;-55
2021/02/20 11:19:22;;;;;;;2.11;1.89;;;;;;;19.41;45.30;100564.91;;;;-55
2021/02/20 11:22:22;;;;;;;5.21;2.29;;;;;;;19.42;45.19;100561.73;;;;-53
2021/02/20 11:25:22;;;;;;;4.21;2.21;;;;;;;19.46;45.28;100556.57;;;;-55
2021/02/20 11:28:22;;;;;;;3.95;2.19;;;;;;;19.47;45.25;100553.27;;;;-53
2021/02/20 11:31:22;;;;;;;3.07;2.09;;;;;;;19.49;45.25;100551.08;;;;-51
2021/02/20 11:34:22;;;;;;;2.60;2.06;;;;;;;19.51;45.20;100546.03;;;;-53
2021/02/20 11:37:22;;;;;;;3.01;2.22;;;;;;;19.52;45.28;100539.38;;;;-60
2021/02/20 11:40:22;;;;;;;2.81;2.15;;;;;;;19.53;45.05;100529.73;;;;-59
2021/02/20 11:43:22;;;;;;;3.15;2.15;;;;;;;19.57;44.77;100527.81;;;;-53
2021/02/20 11:46:22;;;;;;;2.80;2.09;;;;;;;19.58;44.62;100525.62;;;;-54
2021/02/20 11:49:22;;;;;;;2.58;1.99;;;;;;;19.58;44.52;100512.93;;;;-54
2021/02/20 11:52:22;;;;;;;3.28;2.11;;;;;;;19.57;44.64;100508.14;;;;-54
2021/02/20 11:55:22;;;;;;;8.21;2.18;;;;;;;19.59;44.73;100513.09;;;;-54
2021/02/20 11:58:22;;;;;;;5.09;2.13;;;;;;;19.59;44.79;100515.96;;;;-57
2021/02/20 12:01:22;;;;;;;3.59;2.48;;;;;;;19.61;44.90;100512.62;;;;-54
2021/02/20 12:04:22;;;;;;;4.79;2.31;;;;;;;19.58;44.89;100502.93;;;;-51
2021/02/20 12:07:22;;;;;;;3.52;2.20;;;;;;;19.61;44.87;100494.92;;;;-57
2021/02/20 12:10:22;;;;;;;11.15;2.55;;;;;;;19.62;45.00;100491.91;;;;-51
2021/02/20 12:13:22;;;;;;;3.21;2.29;;;;;;;19.62;44.56;100484.75;;;;-51
2021/02/20 12:16:22;;;;;;;5.64;2.13;;;;;;;19.64;44.37;100481.44;;;;-51
2021/02/20 12:19:22;;;;;;;3.99;2.21;;;;;;;19.64;44.33;100484.77;;;;-51
2021/02/20 12:22:22;;;;;;;4.29;2.15;;;;;;;19.63;44.23;100480.52;;;;-51
2021/02/20 12:25:22;;;;;;;3.45;2.26;;;;;;;19.63;44.17;100472.06;;;;-51
2021/02/20 12:28:22;;;;;;;2.62;2.20;;;;;;;19.62;44.22;100469.38;;;;-51
2021/02/20 12:31:22;;;;;;;3.67;2.18;;;;;;;19.61;44.15;100463.14;;;;-51
2021/02/20 12:34:22;;;;;;;2.33;2.11;;;;;;;19.61;44.10;100462.73;;;;-51
2021/02/20 12:37:22;;;;;;;2.77;2.13;;;;;;;19.61;44.13;100452.41;;;;-51
2021/02/20 12:40:22;;;;;;;3.00;2.19;;;;;;;19.61;44.10;100449.05;;;;-50
2021/02/20 12:43:22;;;;;;;3.61;2.21;;;;;;;19.61;44.06;100447.50;;;;-51
2021/02/20 12:46:22;;;;;;;4.37;2.00;;;;;;;19.59;44.04;100441.66;;;;-51
2021/02/20 12:49:22;;;;;;;2.47;1.93;;;;;;;19.59;44.05;100442.88;;;;-51
2021/02/20 12:52:22;;;;;;;2.98;2.04;;;;;;;19.58;43.98;100440.34;;;;-51
2021/02/20 12:55:22;;;;;;;3.39;2.03;;;;;;;19.59;44.01;100437.19;;;;-48
2021/02/20 12:58:22;;;;;;;3.13;1.97;;;;;;;19.58;43.97;100431.39;;;;-51
2021/02/20 13:01:22;;;;;;;2.57;2.07;;;;;;;19.58;44.00;100421.81;;;;-51
2021/02/20 13:04:22;;;;;;;2.44;2.20;;;;;;;19.58;44.00;100419.53;;;;-51
2021/02/20 13:07:22;;;;;;;2.24;1.85;;;;;;;19.58;43.98;100419.94;;;;-51
2021/02/20 13:10:22;;;;;;;2.37;2.00;;;;;;;19.59;43.92;100415.97;;;;-51
2021/02/20 13:13:27;;;;;;;3.03;2.00;;;;;;;19.59;43.94;100415.48;;;;-51
2021/02/20 13:16:22;;;;;;;4.13;2.00;;;;;;;19.60;43.99;100412.23;;;;-51
2021/02/20 13:19:22;;;;;;;2.14;1.92;;;;;;;19.60;43.92;100407.27;;;;-51
2021/02/20 13:22:22;;;;;;;3.02;2.11;;;;;;;19.62;43.93;100406.06;;;;-52
2021/02/20 13:25:22;;;;;;;3.49;1.99;;;;;;;19.61;43.94;100397.94;;;;-51
2021/02/20 13:28:22;;;;;;;2.23;1.84;;;;;;;19.62;43.90;100402.56;;;;-51
2021/02/20 13:31:22;;;;;;;2.57;1.95;;;;;;;19.62;43.90;100396.63;;;;-50
2021/02/20 13:34:22;;;;;;;2.17;1.82;;;;;;;19.61;43.87;100395.06;;;;-51
2021/02/20 13:37:23;;;;;;;2.17;1.97;;;;;;;19.61;43.88;100391.48;;;;-52
2021/02/20 13:40:23;;;;;;;2.10;1.90;;;;;;;19.63;43.91;100390.44;;;;-51
2021/02/20 13:43:22;;;;;;;2.50;1.90;;;;;;;19.62;43.91;100385.16;;;;-51
2021/02/20 13:46:22;;;;;;;2.09;1.83;;;;;;;19.61;43.88;100374.98;;;;-51
2021/02/20 13:49:22;;;;;;;3.53;2.00;;;;;;;19.61;43.88;100375.55;;;;-51
2021/02/20 13:52:22;;;;;;;3.38;2.05;;;;;;;19.63;44.21;100374.52;;;;-52
2021/02/20 13:55:22;;;;;;;7.52;2.24;;;;;;;19.63;45.00;100375.67;;;;-54
2021/02/20 13:58:22;;;;;;;6.35;2.25;;;;;;;19.69;46.25;100375.51;;;;-50
2021/02/20 14:01:22;;;;;;;8.82;2.37;;;;;;;19.73;46.04;100375.89;;;;-57
2021/02/20 14:04:22;;;;;;;9.42;2.48;;;;;;;19.74;46.09;100375.42;;;;-58
2021/02/20 14:07:22;;;;;;;9.88;2.57;;;;;;;19.73;46.19;100371.01;;;;-53
2021/02/20 14:10:22;;;;;;;5.07;2.38;;;;;;;19.75;46.39;100372.56;;;;-47
2021/02/20 14:13:23;;;;;;;7.07;2.24;;;;;;;19.78;46.47;100365.02;;;;-47
2021/02/20 14:16:22;;;;;;;5.47;2.33;;;;;;;19.78;46.73;100362.67;;;;-54
2021/02/20 14:19:22;;;;;;;5.92;2.15;;;;;;;19.80;46.76;100360.41;;;;-50
2021/02/20 14:22:22;;;;;;;7.08;2.32;;;;;;;19.80;46.83;100360.80;;;;-57
2021/02/20 14:25:22;;;;;;;7.44;2.27;;;;;;;19.81;46.90;100355.42;;;;-58
2021/02/20 14:28:22;;;;;;;5.91;2.35;;;;;;;19.82;46.75;100351.22;;;;-51
2021/02/20 14:31:22;;;;;;;4.47;2.19;;;;;;;19.83;46.97;100352.09;;;;-54
2021/02/20 14:34:22;;;;;;;6.61;2.38;;;;;;;19.84;47.11;100349.57;;;;-53
2021/02/20 14:37:22;;;;;;;4.03;2.24;;;;;;;19.86;47.15;100346.75;;;;-55
2021/02/20 14:40:22;;;;;;;4.89;2.29;;;;;;;19.87;47.26;100343.17;;;;-51
2021/02/20 14:43:22;;;;;;;7.44;2.27;;;;;;;19.88;46.93;100343.24;;;;-56
2021/02/20 14:46:22;;;;;;;14.79;2.48;;;;;;;19.88;47.01;100341.48;;;;-53
2021/02/20 14:49:22;;;;;;;7.11;2.25;;;;;;;19.89;46.96;100338.05;;;;-54
2021/02/20 14:52:22;;;;;;;6.05;2.64;;;;;;;19.81;45.91;100342.98;;;;-57
2021/02/20 14:55:22;;;;;;;5.76;2.47;;;;;;;19.74;45.92;100342.89;;;;-55
2021/02/20 14:58:22;;;;;;;8.01;2.65;;;;;;;19.71;46.04;100342.21;;;;-51
2021/02/20 15:01:22;;;;;;;5.73;2.63;;;;;;;19.68;46.12;100341.61;;;;-52
2021/02/20 15:04:22;;;;;;;4.11;2.47;;;;;;;19.67;46.18;100341.69;;;;-55
2021/02/20 15:07:22;;;;;;;5.09;2.43;;;;;;;19.64;46.13;100341.11;;;;-56
2021/02/20 15:10:22;;;;;;;4.88;2.39;;;;;;;19.65;46.30;100345.17;;;;-57
2021/02/20 15:13:22;;;;;;;4.38;2.41;;;;;;;19.63;46.14;100341.77;;;;-51
2021/02/20 15:16:22;;;;;;;4.04;2.22;;;;;;;19.67;46.07;100345.27;;;;-50
2021/02/20 15:19:22;;;;;;;4.09;2.37;;;;;;;19.68;45.80;100345.67;;;;-53
2021/02/20 15:22:22;;;;;;;4.02;2.15;;;;;;;19.68;45.65;100343.33;;;;-55
2021/02/20 15:25:22;;;;;;;6.31;2.63;;;;;;;19.64;45.96;100340.06;;;;-58
2021/02/20 15:28:22;;;;;;;6.95;2.77;;;;;;;19.62;46.31;100336.95;;;;-49
2021/02/20 15:31:22;;;;;;;9.53;2.55;;;;;;;19.67;46.37;100332.77;;;;-52
2021/02/20 15:34:22;;;;;;;10.63;2.47;;;;;;;19.71;46.38;100334.25;;;;-52
2021/02/20 15:37:22;;;;;;;5.53;2.35;;;;;;;19.70;46.38;100332.52;;;;-51
2021/02/20 15:40:22;;;;;;;7.37;2.45;;;;;;;19.72;46.14;100330.44;;;;-54
2021/02/20 15:43:22;;;;;;;3.95;2.43;;;;;;;19.75;46.03;100327.44;;;;-52
2021/02/20 15:46:22;;;;;;;4.77;2.35;;;;;;;19.77;46.22;100338.75;;;;-52
2021/02/20 15:49:22;;;;;;;4.63;2.39;;;;;;;19.79;46.24;100335.25;;;;-54
2021/02/20 15:52:22;;;;;;;5.15;2.32;;;;;;;19.81;46.16;100336.00;;;;-52
2021/02/20 15:55:22;;;;;;;5.91;2.30;;;;;;;19.81;46.15;100335.67;;;;-53
2021/02/20 15:58:23;;;;;;;5.58;2.19;;;;;;;19.80;46.16;100331.05;;;;-58
2021/02/20 16:01:22;;;;;;;6.47;2.51;;;;;;;19.79;46.19;100329.81;;;;-51
2021/02/20 16:04:22;;;;;;;7.87;2.50;;;;;;;19.76;46.37;100336.23;;;;-52
2021/02/20 16:07:22;;;;;;;4.31;2.33;;;;;;;19.79;46.29;100338.75;;;;-51
2021/02/20 16:10:22;;;;;;;4.55;2.46;;;;;;;19.82;46.29;100336.55;;;;-59
2021/02/20 16:13:22;;;;;;;4.57;2.39;;;;;;;19.82;46.32;100339.18;;;;-51
2021/02/20 16:16:22;;;;;;;3.38;2.14;;;;;;;19.83;46.24;100337.38;;;;-53
2021/02/20 16:19:22;;;;;;;3.53;2.09;;;;;;;19.84;46.24;100336.07;;;;-53
2021/02/20 16:22:22;;;;;;;4.63;2.34;;;;;;;19.84;46.14;100337.53;;;;-51
2021/02/20 16:25:22;;;;;;;4.17;2.25;;;;;;;19.86;46.21;100341.13;;;;-54
2021/02/20 16:28:22;;;;;;;3.39;2.37;;;;;;;19.87;46.22;100339.67;;;;-52
2021/02/20 16:31:22;;;;;;;3.46;2.30;;;;;;;19.87;46.19;100340.66;;;;-47
2021/02/20 16:34:23;;;;;;;5.98;2.37;;;;;;;19.93;46.64;100342.05;;;;-44
2021/02/20 16:37:22;;;;;;;3.81;2.18;;;;;;;19.96;46.62;100337.73;;;;-53
2021/02/20 16:40:22;;;;;;;6.67;2.38;;;;;;;19.94;46.31;100339.92;;;;-57
2021/02/20 16:43:23;;;;;;;4.27;2.39;;;;;;;19.93;46.31;100337.17;;;;-53